createdAt,value
2018-05-31T00:02:14.429Z,19.10
2018-05-31T00:04:42.058Z,19.10
2018-05-31T00:07:09.645Z,19.10
2018-05-31T00:09:37.297Z,19.10
2018-05-31T00:12:04.925Z,19.20
2018-05-31T00:14:32.552Z,19.30
2018-05-31T00:17:00.184Z,19.30
2018-05-31T00:19:27.776Z,19.30
2018-05-31T00:21:55.389Z,19.20
2018-05-31T00:24:22.977Z,19.20
2018-05-31T00:26:50.605Z,19.20
2018-05-31T00:29:18.200Z,19.20
2018-05-31T00:31:45.824Z,19.10
2018-05-31T00:34:13.443Z,19.10
2018-05-31T00:36:41.072Z,19.10
2018-05-31T00:39:08.659Z,19.00
2018-05-31T00:41:36.286Z,19.10
2018-05-31T00:44:03.886Z,19.10
2018-05-31T00:46:31.523Z,19.10
2018-05-31T00:48:59.168Z,19.00
2018-05-31T00:51:26.754Z,19.00
2018-05-31T00:53:54.344Z,19.00
2018-05-31T00:56:21.972Z,19.00
2018-05-31T00:58:49.604Z,18.90
2018-05-31T01:01:17.205Z,18.90
2018-05-31T01:03:44.828Z,18.90
2018-05-31T01:06:12.452Z,18.80
2018-05-31T01:08:40.049Z,18.80
2018-05-31T01:11:07.672Z,18.80
2018-05-31T01:13:35.269Z,18.80
2018-05-31T01:16:02.880Z,18.70
2018-05-31T01:18:30.473Z,18.70
2018-05-31T01:20:58.104Z,18.60
2018-05-31T01:23:25.686Z,18.60
2018-05-31T01:25:53.315Z,18.50
2018-05-31T01:28:20.901Z,18.50
2018-05-31T01:30:48.486Z,18.50
2018-05-31T01:33:16.130Z,18.50
2018-05-31T01:35:43.712Z,18.50
2018-05-31T01:38:23.222Z,18.50
2018-05-31T01:40:50.800Z,18.50
2018-05-31T01:43:18.430Z,18.40
2018-05-31T01:45:46.034Z,18.40
2018-05-31T01:48:13.684Z,18.30
2018-05-31T01:50:42.043Z,18.20
2018-05-31T01:53:09.632Z,18.20
2018-05-31T01:55:37.261Z,18.30
2018-05-31T01:58:04.892Z,18.20
2018-05-31T02:00:32.470Z,18.20
2018-05-31T02:03:00.049Z,18.20
2018-05-31T02:05:27.677Z,18.20
2018-05-31T02:07:55.264Z,18.10
2018-05-31T02:10:23.669Z,18.10
2018-05-31T02:12:51.294Z,18.10
2018-05-31T02:15:18.876Z,18.00
2018-05-31T02:17:46.510Z,18.00
2018-05-31T02:20:14.110Z,18.00
2018-05-31T02:22:41.754Z,18.00
2018-05-31T02:25:09.336Z,18.00
2018-05-31T02:27:36.933Z,18.00
2018-05-31T02:30:05.014Z,17.90
2018-05-31T02:32:32.603Z,17.90
2018-05-31T02:35:00.232Z,17.90
2018-05-31T02:37:27.826Z,17.90
2018-05-31T02:39:55.455Z,18.00
2018-05-31T02:42:23.050Z,18.00
2018-05-31T02:44:50.640Z,17.90
2018-05-31T02:47:19.041Z,17.90
2018-05-31T02:49:46.674Z,17.80
2018-05-31T02:52:15.039Z,17.80
2018-05-31T02:54:42.674Z,17.80
2018-05-31T02:57:10.264Z,17.70
2018-05-31T02:59:37.849Z,17.70
2018-05-31T03:02:06.244Z,17.60
2018-05-31T03:04:33.877Z,17.60
2018-05-31T03:07:02.305Z,17.70
2018-05-31T03:09:29.875Z,17.70
2018-05-31T03:11:57.501Z,17.70
2018-05-31T03:14:25.149Z,17.80
2018-05-31T03:16:53.541Z,17.90
2018-05-31T03:19:21.134Z,17.80
2018-05-31T03:21:48.760Z,17.90
2018-05-31T03:24:16.365Z,17.90
2018-05-31T03:26:43.971Z,17.90
2018-05-31T03:29:11.593Z,17.90
2018-05-31T03:31:39.187Z,17.80
2018-05-31T03:34:06.826Z,17.80
2018-05-31T03:36:34.430Z,17.80
2018-05-31T03:39:02.049Z,17.80
2018-05-31T03:41:29.632Z,17.80
2018-05-31T03:43:57.261Z,17.80
2018-05-31T03:46:24.867Z,17.80
2018-05-31T03:48:52.504Z,17.80
2018-05-31T03:51:20.104Z,17.80
2018-05-31T03:53:47.712Z,17.70
2018-05-31T03:56:15.340Z,17.70
2018-05-31T03:58:42.937Z,17.60
2018-05-31T04:01:10.568Z,17.60
2018-05-31T04:03:38.188Z,17.50
2018-05-31T04:06:05.791Z,17.50
2018-05-31T04:08:33.438Z,17.50
2018-05-31T04:11:01.885Z,17.60
2018-05-31T04:13:29.514Z,17.50
2018-05-31T04:15:57.132Z,17.50
2018-05-31T04:18:24.718Z,17.60
2018-05-31T04:20:52.349Z,17.60
2018-05-31T04:23:19.951Z,17.70
2018-05-31T04:25:47.604Z,17.80
2018-05-31T04:28:15.197Z,17.90
2018-05-31T04:30:42.793Z,17.90
2018-05-31T04:33:10.442Z,18.00
2018-05-31T04:35:38.087Z,18.10
2018-05-31T04:38:05.681Z,18.10
2018-05-31T04:40:34.037Z,18.30
2018-05-31T04:43:01.669Z,18.30
2018-05-31T04:45:29.269Z,18.30
2018-05-31T04:47:56.896Z,18.30
2018-05-31T04:50:24.522Z,18.40
2018-05-31T04:52:52.877Z,18.50
2018-05-31T04:55:21.281Z,18.50
2018-05-31T04:57:49.636Z,18.60
2018-05-31T05:00:18.037Z,18.60
2018-05-31T05:02:45.643Z,18.60
2018-05-31T05:05:13.273Z,18.70
2018-05-31T05:07:40.869Z,18.70
2018-05-31T05:10:12.102Z,18.80
2018-05-31T05:12:41.158Z,18.90
2018-05-31T05:15:11.321Z,18.90
2018-05-31T05:17:41.197Z,18.90
2018-05-31T05:20:12.059Z,19.00
2018-05-31T05:22:39.881Z,19.00
2018-05-31T05:25:07.474Z,19.10
2018-05-31T05:27:35.068Z,19.20
2018-05-31T05:30:02.694Z,19.30
2018-05-31T05:32:30.318Z,19.40
2018-05-31T05:34:57.937Z,19.40
2018-05-31T05:37:25.570Z,19.50
2018-05-31T05:39:53.923Z,19.60
2018-05-31T05:42:21.571Z,19.60
2018-05-31T05:44:49.161Z,19.60
2018-05-31T05:47:17.522Z,19.60
2018-05-31T05:49:45.165Z,19.60
2018-05-31T05:52:12.797Z,19.60
2018-05-31T05:54:40.434Z,19.60
2018-05-31T05:57:08.037Z,19.60
2018-05-31T05:59:35.676Z,19.60
2018-05-31T06:02:03.270Z,19.50
2018-05-31T06:04:30.892Z,19.50
2018-05-31T06:06:58.477Z,19.50
2018-05-31T06:09:26.108Z,19.50
2018-05-31T06:11:53.753Z,19.50
2018-05-31T06:14:21.352Z,19.50
2018-05-31T06:16:48.955Z,19.50
2018-05-31T06:19:16.585Z,19.50
2018-05-31T06:21:44.208Z,19.50
2018-05-31T06:24:11.794Z,19.60
2018-05-31T06:26:39.455Z,19.70
2018-05-31T06:29:07.058Z,19.70
2018-05-31T06:31:34.712Z,19.90
2018-05-31T06:34:02.310Z,20.10
2018-05-31T06:36:30.728Z,20.60
2018-05-31T06:38:58.343Z,20.50
2018-05-31T06:41:25.961Z,20.80
2018-05-31T06:43:53.582Z,21.00
2018-05-31T06:46:21.171Z,21.30
2018-05-31T06:48:48.818Z,21.40
2018-05-31T06:51:16.401Z,21.60
2018-05-31T06:53:44.021Z,21.80
2018-05-31T06:56:11.606Z,21.90
2018-05-31T06:58:39.990Z,22.30
2018-05-31T07:01:08.336Z,22.40
2018-05-31T07:03:35.960Z,22.40
2018-05-31T07:06:03.593Z,22.60
2018-05-31T07:08:31.940Z,23.00
2018-05-31T07:10:59.601Z,23.00
2018-05-31T07:13:27.235Z,23.20
2018-05-31T07:15:54.885Z,23.30
2018-05-31T07:18:22.474Z,23.50
2018-05-31T07:20:50.053Z,23.60
2018-05-31T07:23:17.669Z,23.80
2018-05-31T07:25:45.286Z,23.90
2018-05-31T07:28:12.868Z,24.00
2018-05-31T07:30:41.253Z,24.20
2018-05-31T07:33:08.828Z,24.20
2018-05-31T07:35:36.458Z,24.30
2018-05-31T07:38:04.795Z,24.50
2018-05-31T07:40:32.441Z,24.50
2018-05-31T07:43:00.019Z,24.70
2018-05-31T07:45:27.625Z,24.80
2018-05-31T07:47:55.205Z,24.80
2018-05-31T07:50:22.816Z,24.90
2018-05-31T07:52:50.387Z,25.00
2018-05-31T07:55:17.993Z,25.10
2018-05-31T07:57:45.625Z,25.20
2018-05-31T08:00:13.240Z,25.20
2018-05-31T08:02:40.813Z,25.30
2018-05-31T08:05:08.421Z,25.30
2018-05-31T08:07:36.760Z,25.40
2018-05-31T08:10:05.043Z,25.40
2018-05-31T08:12:32.614Z,25.60
2018-05-31T08:15:00.182Z,25.70
2018-05-31T08:17:27.804Z,25.80
2018-05-31T08:19:55.383Z,25.90
2018-05-31T08:22:22.961Z,25.90
2018-05-31T08:24:50.581Z,25.90
2018-05-31T08:27:18.184Z,25.90
2018-05-31T08:29:45.777Z,26.00
2018-05-31T08:32:13.364Z,26.00
2018-05-31T08:34:40.968Z,26.10
2018-05-31T08:37:09.350Z,26.40
2018-05-31T08:39:37.175Z,26.40
2018-05-31T08:42:07.048Z,26.50
2018-05-31T08:44:36.694Z,26.40
2018-05-31T08:47:06.899Z,26.50
2018-05-31T08:49:36.183Z,26.60
2018-05-31T08:52:04.658Z,26.60
2018-05-31T08:54:35.415Z,26.60
2018-05-31T08:57:04.402Z,26.60
2018-05-31T08:59:33.225Z,26.70
2018-05-31T09:02:04.140Z,27.00
2018-05-31T09:04:32.369Z,27.00
2018-05-31T09:07:00.712Z,27.20
2018-05-31T09:09:29.634Z,27.30
2018-05-31T09:11:58.503Z,27.40
2018-05-31T09:14:26.617Z,27.60
2018-05-31T09:16:54.852Z,27.80
2018-05-31T09:19:23.453Z,27.90
2018-05-31T09:21:51.688Z,28.00
2018-05-31T09:24:20.158Z,28.10
2018-05-31T09:26:50.498Z,28.10
2018-05-31T09:29:19.467Z,28.10
2018-05-31T09:31:49.108Z,28.20
2018-05-31T09:34:18.972Z,28.40
2018-05-31T09:36:47.774Z,28.60
2018-05-31T09:39:16.378Z,28.60
2018-05-31T09:41:45.926Z,28.50
2018-05-31T09:44:15.948Z,28.40
2018-05-31T09:46:44.099Z,28.30
2018-05-31T09:49:13.437Z,28.40
2018-05-31T09:51:42.683Z,28.30
2018-05-31T09:54:13.720Z,28.50
2018-05-31T09:56:42.097Z,28.60
2018-05-31T09:59:12.878Z,28.60
2018-05-31T10:01:44.077Z,28.60
2018-05-31T10:04:13.843Z,28.70
2018-05-31T10:06:42.093Z,28.90
2018-05-31T10:09:12.493Z,29.00
2018-05-31T10:11:41.089Z,29.00
2018-05-31T10:14:10.297Z,29.00
2018-05-31T10:16:39.110Z,29.20
2018-05-31T10:19:08.435Z,29.40
2018-05-31T10:21:36.595Z,29.50
2018-05-31T10:24:04.981Z,29.50
2018-05-31T10:26:33.360Z,29.60
2018-05-31T10:29:01.743Z,29.70
2018-05-31T10:31:30.007Z,29.80
2018-05-31T10:33:57.687Z,29.70
2018-05-31T10:36:25.256Z,29.70
2018-05-31T10:38:52.877Z,29.70
2018-05-31T10:41:20.453Z,29.80
2018-05-31T10:43:48.030Z,29.80
2018-05-31T10:46:15.666Z,29.80
2018-05-31T10:48:46.256Z,29.90
2018-05-31T10:51:19.046Z,30.10
2018-05-31T10:53:51.075Z,30.10
2018-05-31T10:56:23.820Z,30.00
2018-05-31T11:01:32.374Z,29.90
2018-05-31T11:04:01.787Z,30.00
2018-05-31T11:06:34.286Z,30.00
2018-05-31T11:09:03.332Z,30.00
2018-05-31T11:11:35.599Z,30.20
2018-05-31T11:14:05.307Z,30.30
2018-05-31T11:16:39.414Z,30.40
2018-05-31T11:19:08.422Z,30.30
2018-05-31T11:21:36.837Z,30.40
2018-05-31T11:24:05.245Z,30.40
2018-05-31T11:26:33.540Z,30.50
2018-05-31T11:29:02.790Z,30.60
2018-05-31T11:31:31.513Z,30.50
2018-05-31T11:34:00.544Z,30.70
2018-05-31T11:39:03.987Z,31.10
2018-05-31T11:41:33.216Z,31.10
2018-05-31T11:44:01.811Z,31.00
2018-05-31T11:46:33.059Z,30.80
2018-05-31T11:49:09.120Z,30.80
2018-05-31T11:51:40.234Z,31.00
2018-05-31T11:54:09.901Z,31.10
2018-05-31T11:56:42.467Z,31.30
2018-05-31T11:59:10.999Z,31.40
2018-05-31T12:01:42.355Z,31.60
2018-05-31T12:04:12.415Z,31.60
2018-05-31T12:06:40.862Z,31.30
2018-05-31T12:09:11.645Z,31.20
2018-05-31T12:11:40.807Z,31.30
2018-05-31T12:14:11.474Z,31.30
2018-05-31T12:16:40.369Z,31.20
2018-05-31T12:19:07.993Z,31.20
2018-05-31T12:21:35.597Z,31.30
2018-05-31T12:24:03.176Z,31.50
2018-05-31T12:26:30.793Z,31.80
2018-05-31T12:28:58.365Z,32.00
2018-05-31T12:31:25.968Z,32.20
2018-05-31T12:33:53.537Z,32.50
2018-05-31T12:36:21.147Z,32.60
2018-05-31T12:38:48.719Z,32.50
2018-05-31T12:41:16.330Z,32.30
2018-05-31T12:43:43.956Z,31.90
2018-05-31T12:46:11.732Z,31.60
2018-05-31T12:48:41.264Z,31.40
2018-05-31T12:51:09.041Z,31.30
2018-05-31T12:53:36.668Z,31.40
2018-05-31T12:56:04.274Z,31.60
2018-05-31T12:58:31.893Z,31.80
2018-05-31T13:00:59.509Z,32.10
2018-05-31T13:03:27.076Z,32.30
2018-05-31T13:05:54.707Z,32.60
2018-05-31T13:08:22.386Z,32.70
2018-05-31T13:10:49.992Z,32.70
2018-05-31T13:13:18.088Z,32.80
2018-05-31T13:15:45.744Z,32.40
2018-05-31T13:18:13.645Z,32.20
2018-05-31T13:20:41.298Z,32.10
2018-05-31T13:23:08.876Z,32.10
2018-05-31T13:25:36.492Z,32.30
2018-05-31T13:28:04.073Z,32.70
2018-05-31T13:30:32.460Z,33.50
2018-05-31T13:33:00.832Z,33.60
2018-05-31T13:35:29.192Z,33.40
2018-05-31T13:37:56.806Z,33.40
2018-05-31T13:40:24.417Z,33.40
2018-05-31T13:42:51.995Z,33.50
2018-05-31T13:45:19.600Z,33.40
2018-05-31T13:47:47.181Z,33.10
2018-05-31T13:50:14.796Z,32.90
2018-05-31T13:52:42.436Z,33.00
2018-05-31T13:55:10.015Z,33.30
2018-05-31T13:57:37.602Z,33.50
2018-05-31T14:00:05.214Z,33.40
2018-05-31T14:02:32.799Z,33.20
2018-05-31T14:05:00.422Z,32.50
2018-05-31T14:07:27.997Z,32.00
2018-05-31T14:09:56.347Z,31.60
2018-05-31T14:12:23.965Z,31.60
2018-05-31T14:14:51.576Z,31.30
2018-05-31T14:17:19.144Z,31.00
2018-05-31T14:19:46.722Z,30.60
2018-05-31T14:22:14.349Z,30.30
2018-05-31T14:24:41.925Z,30.20
2018-05-31T14:27:09.529Z,30.00
2018-05-31T14:29:37.097Z,30.00
2018-05-31T14:32:04.707Z,30.30
2018-05-31T14:34:32.278Z,30.70
2018-05-31T14:36:59.894Z,31.20
2018-05-31T14:39:27.469Z,31.50
2018-05-31T14:41:55.082Z,31.70
2018-05-31T14:44:22.667Z,31.60
2018-05-31T14:46:50.292Z,31.50
2018-05-31T14:49:17.910Z,31.50
2018-05-31T14:51:45.475Z,31.40
2018-05-31T14:54:13.847Z,31.20
2018-05-31T14:56:41.416Z,31.10
2018-05-31T14:59:09.020Z,31.20
2018-05-31T15:01:36.609Z,31.20
2018-05-31T15:04:04.267Z,31.30
2018-05-31T15:06:31.851Z,31.30
2018-05-31T15:08:59.459Z,31.40
2018-05-31T15:11:27.033Z,31.30
2018-05-31T15:13:54.657Z,31.20
2018-05-31T15:16:22.231Z,31.10
2018-05-31T15:18:49.804Z,31.10
2018-05-31T15:21:17.418Z,31.10
2018-05-31T15:23:44.993Z,31.10
2018-05-31T15:26:12.606Z,31.00
2018-05-31T15:28:40.176Z,30.90
2018-05-31T15:31:07.755Z,30.80
2018-05-31T15:33:35.371Z,30.60
2018-05-31T15:36:02.971Z,30.40
2018-05-31T15:38:30.540Z,30.20
2018-05-31T15:40:58.150Z,30.20
2018-05-31T15:43:25.963Z,30.10
2018-05-31T15:45:53.568Z,29.90
2018-05-31T15:48:21.177Z,29.80
2018-05-31T15:50:48.755Z,29.80
2018-05-31T15:53:16.361Z,29.60
2018-05-31T15:55:43.969Z,29.40
2018-05-31T15:58:11.581Z,28.30
2018-05-31T16:00:39.206Z,26.80
2018-05-31T16:03:06.813Z,25.60
2018-05-31T16:05:34.406Z,24.40
2018-05-31T16:08:02.020Z,23.40
2018-05-31T16:10:29.608Z,22.90
2018-05-31T16:12:57.411Z,22.60
2018-05-31T16:15:25.001Z,22.30
2018-05-31T16:17:52.663Z,22.00
2018-05-31T16:20:20.344Z,21.80
2018-05-31T16:22:47.969Z,21.60
2018-05-31T16:25:18.379Z,21.50
2018-05-31T16:27:46.167Z,21.40
2018-05-31T16:30:14.589Z,21.30
2018-05-31T16:32:42.382Z,21.20
2018-05-31T16:35:10.023Z,21.20
2018-05-31T16:37:37.616Z,21.10
2018-05-31T16:40:05.278Z,20.70
2018-05-31T16:42:32.849Z,20.20
2018-05-31T16:45:00.445Z,19.80
2018-05-31T16:47:28.072Z,19.50
2018-05-31T16:49:55.649Z,19.40
2018-05-31T16:52:23.297Z,19.30
2018-05-31T16:54:50.923Z,19.30
2018-05-31T16:57:18.531Z,19.30
2018-05-31T16:59:46.116Z,19.30
2018-05-31T17:02:15.392Z,19.30
2018-05-31T17:04:43.006Z,19.30
2018-05-31T17:07:10.617Z,19.30
2018-05-31T17:09:38.201Z,19.30
2018-05-31T17:12:05.839Z,19.20
2018-05-31T17:14:33.434Z,19.20
2018-05-31T17:17:01.017Z,19.10
2018-05-31T17:19:29.409Z,19.10
2018-05-31T17:21:56.988Z,19.10
2018-05-31T17:24:24.610Z,19.10
2018-05-31T17:26:52.963Z,19.10
2018-05-31T17:29:20.580Z,19.10
2018-05-31T17:31:48.204Z,19.20
2018-05-31T17:34:16.613Z,19.20
2018-05-31T17:36:44.204Z,19.20
2018-05-31T17:39:11.853Z,19.30
2018-05-31T17:41:42.053Z,19.30
2018-05-31T17:44:10.208Z,19.30
2018-05-31T17:46:38.564Z,19.40
2018-05-31T17:49:07.203Z,19.40
2018-05-31T17:51:35.106Z,19.40
2018-05-31T17:54:02.756Z,19.50
2018-05-31T17:56:30.389Z,19.40
2018-05-31T17:58:57.973Z,19.50
2018-05-31T18:01:25.550Z,19.40
2018-05-31T18:03:53.168Z,19.20
2018-05-31T18:06:20.961Z,19.00
2018-05-31T18:08:48.582Z,18.90
2018-05-31T18:11:16.167Z,18.80
2018-05-31T18:13:43.798Z,18.70
2018-05-31T18:16:11.412Z,18.60
2018-05-31T18:18:39.046Z,18.60
2018-05-31T18:21:06.626Z,18.60
2018-05-31T18:23:34.271Z,18.60
2018-05-31T18:26:01.902Z,18.50
2018-05-31T18:28:29.486Z,18.50
2018-05-31T18:30:57.117Z,18.50
2018-05-31T18:33:24.734Z,18.60
2018-05-31T18:35:52.605Z,18.60
2018-05-31T18:38:20.244Z,18.60
2018-05-31T18:40:47.887Z,18.60
2018-05-31T18:43:15.468Z,18.70
2018-05-31T18:45:43.041Z,18.70
2018-05-31T18:48:10.648Z,18.70
2018-05-31T18:50:38.226Z,18.70
2018-05-31T18:53:06.604Z,18.60
2018-05-31T18:55:34.992Z,18.60
2018-05-31T18:58:03.353Z,18.60
2018-05-31T19:00:30.935Z,18.60
2018-05-31T19:02:58.560Z,18.70
2018-05-31T19:05:26.136Z,18.70
2018-05-31T19:07:53.722Z,18.80
2018-05-31T19:10:21.339Z,18.80
2018-05-31T19:12:54.662Z,18.70
2018-05-31T19:15:22.312Z,18.70
2018-05-31T19:17:50.473Z,18.70
2018-05-31T19:20:18.150Z,18.70
2018-05-31T19:22:45.739Z,18.80
2018-05-31T19:25:20.298Z,18.70
2018-05-31T19:27:47.887Z,18.70
2018-05-31T19:30:21.250Z,18.70
2018-05-31T19:32:48.839Z,18.70
2018-05-31T19:35:22.137Z,18.80
2018-05-31T19:37:50.023Z,18.70
2018-05-31T19:40:17.785Z,18.70
2018-05-31T19:42:50.945Z,18.70
2018-05-31T19:45:18.521Z,18.70
2018-05-31T19:47:46.141Z,18.70
2018-05-31T19:50:13.717Z,18.70
2018-05-31T19:52:46.965Z,18.70
2018-05-31T19:55:14.546Z,18.70
2018-05-31T19:57:47.826Z,18.70
2018-05-31T20:00:21.863Z,18.70
2018-05-31T20:02:55.049Z,18.60
2018-05-31T20:05:22.776Z,18.70
2018-05-31T20:07:50.395Z,18.70
2018-05-31T20:10:17.968Z,18.60
2018-05-31T20:12:45.579Z,18.60
2018-05-31T20:15:13.189Z,18.60
2018-05-31T20:17:40.812Z,18.60
2018-05-31T20:20:08.387Z,18.60
2018-05-31T20:22:36.018Z,18.60
2018-05-31T20:25:03.600Z,18.60
2018-05-31T20:27:31.173Z,18.60
2018-05-31T20:29:58.818Z,18.60
2018-05-31T20:32:26.447Z,18.60
2018-05-31T20:34:54.030Z,18.60
2018-05-31T20:37:21.642Z,18.60
2018-05-31T20:39:49.225Z,18.60
2018-05-31T20:42:16.839Z,18.60
2018-05-31T20:44:44.421Z,18.60
2018-05-31T20:47:12.049Z,18.60
2018-05-31T20:49:39.625Z,18.60
2018-05-31T20:52:07.241Z,18.50
2018-05-31T20:54:34.821Z,18.50
2018-05-31T20:57:02.438Z,18.50
2018-05-31T20:59:30.028Z,18.50
2018-05-31T21:01:57.612Z,18.50
2018-05-31T21:04:26.382Z,18.40
2018-05-31T21:06:55.394Z,18.40
2018-05-31T21:09:24.324Z,18.40
2018-05-31T21:11:51.953Z,18.40
2018-05-31T21:14:19.520Z,18.40
2018-05-31T21:16:47.171Z,18.40
2018-05-31T21:19:15.117Z,18.30
2018-05-31T21:21:42.755Z,18.30
2018-05-31T21:24:10.336Z,18.30
2018-05-31T21:26:37.960Z,18.30
2018-05-31T21:29:05.538Z,18.30
2018-05-31T21:31:33.115Z,18.30
2018-05-31T21:34:00.726Z,18.30
2018-05-31T21:36:28.310Z,18.30
2018-05-31T21:38:55.934Z,18.30
2018-05-31T21:41:23.518Z,18.30
2018-05-31T21:43:51.141Z,18.30
2018-05-31T21:46:18.726Z,18.30
2018-05-31T21:48:46.355Z,18.30
2018-05-31T21:51:13.985Z,18.30
2018-05-31T21:53:41.607Z,18.20
2018-05-31T21:56:09.314Z,18.20
2018-05-31T21:58:36.940Z,18.20
2018-05-31T22:01:04.520Z,18.30
2018-05-31T22:03:33.099Z,18.20
2018-05-31T22:06:00.729Z,18.30
2018-05-31T22:08:28.336Z,18.30
2018-05-31T22:10:56.009Z,18.30
2018-05-31T22:13:23.611Z,18.30
2018-05-31T22:15:52.007Z,18.20
2018-05-31T22:18:19.652Z,18.20
2018-05-31T22:20:47.671Z,18.20
2018-05-31T22:23:15.376Z,18.20
2018-05-31T22:25:43.855Z,18.10
2018-05-31T22:28:12.221Z,18.00
2018-05-31T22:30:39.913Z,18.00
2018-05-31T22:33:08.002Z,18.00
2018-05-31T22:35:35.658Z,17.90
2018-05-31T22:38:03.313Z,17.90
2018-05-31T22:40:30.889Z,17.80
2018-05-31T22:42:58.481Z,17.80
2018-05-31T22:45:26.106Z,17.80
2018-05-31T22:47:53.724Z,17.70
2018-05-31T22:50:21.339Z,17.70
2018-05-31T22:52:48.963Z,17.70
2018-05-31T22:55:16.583Z,17.70
2018-05-31T22:57:44.665Z,17.70
2018-05-31T23:00:12.419Z,17.60
2018-05-31T23:02:40.041Z,17.60
2018-05-31T23:05:07.756Z,17.60
2018-05-31T23:07:35.337Z,17.60
2018-05-31T23:10:03.097Z,17.50
2018-05-31T23:12:30.691Z,17.50
2018-05-31T23:14:58.325Z,17.50
2018-05-31T23:17:25.951Z,17.50
2018-05-31T23:19:53.587Z,17.50
2018-05-31T23:22:21.241Z,17.40
2018-05-31T23:24:48.837Z,17.40
2018-05-31T23:27:16.414Z,17.40
2018-05-31T23:29:44.044Z,17.30
2018-05-31T23:32:11.630Z,17.30
2018-05-31T23:34:39.205Z,17.30
2018-05-31T23:37:06.823Z,17.20
2018-05-31T23:39:34.397Z,17.20
2018-05-31T23:42:02.024Z,17.10
2018-05-31T23:44:29.613Z,17.10
2018-05-31T23:46:57.226Z,17.10
2018-05-31T23:49:24.823Z,17.10
2018-05-31T23:51:52.466Z,17.10
2018-05-31T23:54:20.045Z,17.10
2018-05-31T23:56:47.681Z,17.10
2018-05-31T23:59:15.297Z,17.10
